Time;durP1;ratioP1;P1;durP2;ratioP2;P2;SDS_P1;SDS_P2;PMS_P1;PMS_P2;Temp;Humidity;BMP_temperature;BMP_pressure;BME280_temperature;BME280_humidity;BME280_pressure;Samples;Min_cycle;Max_cycle;Signal;HPM_P1;HPM_P2
2021/09/15 00:02:49;;;;;;;9.30;5.10;;;;;;;;;;10365982;28;20058;-80
2021/09/15 00:07:49;;;;;;;7.40;3.92;;;;;;;;;;10355058;28;20525;-80
2021/09/15 00:12:50;;;;;;;9.27;4.40;;;;;;;;;;10356202;28;20089;-80
2021/09/15 00:17:50;;;;;;;10.03;4.80;;;;;;;;;;10341404;28;20042;-80
2021/09/15 00:22:51;;;;;;;7.15;4.43;;;;;;;;;;10357678;28;20537;-79
2021/09/15 00:27:51;;;;;;;7.70;5.07;;;;;;;;;;10371265;28;20124;-79
2021/09/15 00:32:51;;;;;;;8.27;5.20;;;;;;;;;;10354592;28;20041;-80
2021/09/15 00:37:52;;;;;;;7.03;4.60;;;;;;;;;;10366122;28;20440;-79
2021/09/15 00:42:52;;;;;;;4.87;4.13;;;;;;;;;;10370263;28;20078;-80
2021/09/15 00:47:52;;;;;;;7.97;4.23;;;;;;;;;;10368069;28;20037;-79
2021/09/15 00:52:53;;;;;;;9.20;4.50;;;;;;;;;;10367016;28;20105;-79
2021/09/15 00:57:56;;;;;;;9.07;4.57;;;;;;;;;;10374960;28;20519;-80
2021/09/15 01:02:56;;;;;;;8.68;4.47;;;;;;;;;;10362050;28;20053;-82
2021/09/15 01:07:57;;;;;;;7.97;3.97;;;;;;;;;;10375123;28;20030;-82
2021/09/15 01:12:59;;;;;;;8.35;4.28;;;;;;;;;;10380877;28;20044;-82
2021/09/15 01:18:11;;;;;;;6.78;4.30;;;;;;;;;;10391914;28;20054;-80
2021/09/15 01:23:12;;;;;;;5.38;4.18;;;;;;;;;;10378175;28;20034;-80
2021/09/15 01:28:12;;;;;;;9.18;4.82;;;;;;;;;;10373776;28;20030;-80
2021/09/15 01:33:15;;;;;;;6.78;4.50;;;;;;;;;;10379849;28;20041;-81
2021/09/15 01:38:16;;;;;;;6.20;4.32;;;;;;;;;;10391495;28;20113;-81
2021/09/15 01:43:16;;;;;;;17.55;3.80;;;;;;;;;;10388418;28;20157;-80
2021/09/15 01:48:17;;;;;;;4.57;3.75;;;;;;;;;;10371545;28;20033;-82
2021/09/15 01:53:18;;;;;;;6.67;4.37;;;;;;;;;;10368301;28;20432;-83
2021/09/15 01:58:18;;;;;;;9.05;4.13;;;;;;;;;;10369339;28;20026;-83
2021/09/15 02:03:18;;;;;;;8.90;4.07;;;;;;;;;;10377185;28;20022;-83
2021/09/15 02:08:19;;;;;;;7.97;4.60;;;;;;;;;;10359754;28;20092;-83
2021/09/15 02:13:19;;;;;;;9.03;4.07;;;;;;;;;;10381628;28;20021;-82
2021/09/15 02:18:19;;;;;;;15.03;4.30;;;;;;;;;;10353325;28;20030;-81
2021/09/15 02:23:20;;;;;;;7.43;4.00;;;;;;;;;;10363801;28;20031;-80
2021/09/15 02:28:20;;;;;;;6.93;4.77;;;;;;;;;;10372678;28;20068;-81
2021/09/15 02:33:20;;;;;;;4.43;3.93;;;;;;;;;;10372014;28;20033;-82
2021/09/15 02:38:21;;;;;;;4.77;3.50;;;;;;;;;;10381222;28;20037;-80
2021/09/15 02:43:21;;;;;;;5.90;4.00;;;;;;;;;;10349374;28;20537;-82
2021/09/15 02:48:21;;;;;;;4.77;3.43;;;;;;;;;;10387550;28;20038;-81
2021/09/15 02:53:23;;;;;;;5.63;3.70;;;;;;;;;;10366705;28;20026;-81
2021/09/15 02:58:23;;;;;;;7.85;3.85;;;;;;;;;;10376946;28;20073;-81
2021/09/15 03:03:24;;;;;;;5.20;3.47;;;;;;;;;;10378907;28;20050;-83
2021/09/15 03:08:24;;;;;;;5.95;3.70;;;;;;;;;;10376409;28;20379;-81
2021/09/15 03:13:25;;;;;;;5.03;3.50;;;;;;;;;;10358828;28;20460;-81
2021/09/15 03:18:25;;;;;;;5.43;3.73;;;;;;;;;;10348722;28;20432;-81
2021/09/15 03:23:25;;;;;;;6.73;3.40;;;;;;;;;;10381297;28;20432;-81
2021/09/15 03:28:26;;;;;;;4.60;3.50;;;;;;;;;;10366278;28;20018;-81
2021/09/15 03:33:26;;;;;;;4.53;3.30;;;;;;;;;;10355193;28;20030;-80
2021/09/15 03:38:27;;;;;;;4.73;3.40;;;;;;;;;;10347470;28;20125;-79
2021/09/15 03:43:27;;;;;;;4.27;3.30;;;;;;;;;;10348531;28;20482;-81
2021/09/15 03:48:27;;;;;;;13.20;3.63;;;;;;;;;;10360979;28;20474;-80
2021/09/15 03:53:28;;;;;;;9.37;3.17;;;;;;;;;;10373741;28;20116;-79
2021/09/15 03:58:28;;;;;;;3.77;3.30;;;;;;;;;;10374361;28;20448;-79
2021/09/15 04:03:28;;;;;;;4.13;3.13;;;;;;;;;;10374377;28;20034;-80
2021/09/15 04:08:29;;;;;;;5.00;2.87;;;;;;;;;;10364046;28;20053;-80
2021/09/15 04:13:29;;;;;;;3.83;3.17;;;;;;;;;;10347257;28;20097;-79
2021/09/15 04:18:30;;;;;;;15.33;3.70;;;;;;;;;;10341151;28;20481;-80
2021/09/15 04:24:03;;;;;;;6.53;3.83;;;;;;;;;;10361847;28;20452;-79
2021/09/15 04:34:10;;;;;;;6.18;3.35;;;;;;;;;;10359244;28;20025;-80
2021/09/15 04:39:10;;;;;;;5.70;3.38;;;;;;;;;;10364780;28;20124;-80
2021/09/15 04:44:11;;;;;;;4.27;3.00;;;;;;;;;;10382370;28;20106;-81
2021/09/15 04:49:11;;;;;;;4.18;2.78;;;;;;;;;;10386734;28;20029;-79
2021/09/15 04:54:12;;;;;;;3.47;2.70;;;;;;;;;;10366607;28;20028;-79
2021/09/15 04:59:12;;;;;;;4.60;3.60;;;;;;;;;;10363144;28;20054;-81
2021/09/15 05:04:13;;;;;;;5.20;3.10;;;;;;;;;;10385409;28;20030;-79
2021/09/15 05:09:13;;;;;;;3.17;2.88;;;;;;;;;;10379761;28;20025;-79
2021/09/15 05:14:14;;;;;;;5.50;3.20;;;;;;;;;;10378200;28;20037;-78
2021/09/15 05:19:14;;;;;;;4.32;3.20;;;;;;;;;;10365512;28;20440;-81
2021/09/15 05:24:15;;;;;;;3.70;2.57;;;;;;;;;;10364091;28;20454;-82
2021/09/15 05:29:15;;;;;;;6.90;2.83;;;;;;;;;;10369256;28;20511;-82
2021/09/15 05:34:15;;;;;;;7.17;2.83;;;;;;;;;;10377159;28;20105;-81
2021/09/15 05:39:16;;;;;;;3.50;2.70;;;;;;;;;;10377625;28;20100;-81
2021/09/15 05:44:16;;;;;;;6.67;2.93;;;;;;;;;;10367344;28;20117;-81
2021/09/15 05:49:17;;;;;;;5.65;2.63;;;;;;;;;;10344154;28;20025;-80
2021/09/15 05:54:17;;;;;;;3.85;2.83;;;;;;;;;;10357179;28;20025;-81
2021/09/15 05:59:17;;;;;;;8.90;2.77;;;;;;;;;;10377424;28;20098;-79
2021/09/15 06:04:18;;;;;;;8.00;3.00;;;;;;;;;;10388722;28;20030;-84
2021/09/15 06:09:18;;;;;;;11.20;3.30;;;;;;;;;;10376317;28;20045;-82
2021/09/15 06:14:19;;;;;;;36.80;3.20;;;;;;;;;;10375473;28;20035;-85
2021/09/15 06:19:19;;;;;;;4.40;2.60;;;;;;;;;;10356114;28;20108;-78
2021/09/15 06:24:19;;;;;;;2.90;2.50;;;;;;;;;;10350658;28;20845;-77
2021/09/15 06:29:20;;;;;;;4.60;2.50;;;;;;;;;;10350925;28;20506;-78
2021/09/15 06:34:20;;;;;;;3.30;2.77;;;;;;;;;;10362287;28;20393;-78
2021/09/15 06:39:21;;;;;;;13.93;2.87;;;;;;;;;;10363566;28;20046;-78
2021/09/15 06:44:21;;;;;;;2.83;2.47;;;;;;;;;;10373098;28;20476;-77
2021/09/15 06:49:22;;;;;;;7.15;2.75;;;;;;;;;;10354923;28;20100;-79
2021/09/15 06:54:22;;;;;;;3.85;2.60;;;;;;;;;;10348762;28;20026;-78
2021/09/15 06:59:22;;;;;;;5.00;3.10;;;;;;;;;;10349491;28;20030;-78
2021/09/15 07:04:23;;;;;;;6.37;2.57;;;;;;;;;;10348933;28;20378;-78
2021/09/15 07:09:24;;;;;;;2.65;2.42;;;;;;;;;;10333889;28;20461;-78
2021/09/15 07:14:24;;;;;;;5.40;2.40;;;;;;;;;;10347613;28;20540;-78
2021/09/15 07:19:24;;;;;;;2.43;2.23;;;;;;;;;;10350708;28;20073;-78
2021/09/15 07:24:25;;;;;;;3.87;2.40;;;;;;;;;;10345181;28;20034;-79
2021/09/15 07:29:26;;;;;;;26.50;5.13;;;;;;;;;;10359003;28;20029;-84
2021/09/15 07:34:26;;;;;;;11.10;5.47;;;;;;;;;;10367063;28;20087;-82
2021/09/15 07:39:26;;;;;;;8.07;4.57;;;;;;;;;;10373559;28;20030;-82
2021/09/15 07:44:27;;;;;;;11.60;4.30;;;;;;;;;;10387511;23;20081;-84
2021/09/15 07:49:27;;;;;;;6.37;4.77;;;;;;;;;;10358841;28;20034;-83
2021/09/15 07:54:27;;;;;;;7.40;5.40;;;;;;;;;;10369460;28;20443;-82
2021/09/15 07:59:28;;;;;;;10.80;5.10;;;;;;;;;;10360591;28;20058;-85
2021/09/15 08:04:28;;;;;;;8.03;4.93;;;;;;;;;;10356506;28;20033;-83
2021/09/15 08:09:29;;;;;;;8.93;5.73;;;;;;;;;;10358467;28;20026;-84
2021/09/15 08:14:29;;;;;;;6.37;4.83;;;;;;;;;;10352456;28;20085;-86
2021/09/15 08:19:29;;;;;;;9.27;5.20;;;;;;;;;;10344912;28;20378;-85
2021/09/15 08:24:30;;;;;;;7.30;5.38;;;;;;;;;;10385227;28;20440;-86
2021/09/15 08:29:30;;;;;;;12.10;5.30;;;;;;;;;;10346589;28;20030;-84
2021/09/15 08:34:31;;;;;;;8.90;5.40;;;;;;;;;;10359187;28;20463;-83
2021/09/15 08:39:31;;;;;;;8.70;5.50;;;;;;;;;;10360878;28;20456;-82
2021/09/15 08:44:31;;;;;;;14.17;5.60;;;;;;;;;;10360253;28;20117;-83
2021/09/15 08:49:33;;;;;;;10.45;5.20;;;;;;;;;;10370693;28;20054;-83
2021/09/15 08:54:33;;;;;;;8.40;5.25;;;;;;;;;;10364127;28;20058;-83
2021/09/15 08:59:34;;;;;;;8.43;5.72;;;;;;;;;;10373844;28;20034;-82
2021/09/15 09:04:49;;;;;;;6.60;5.20;;;;;;;;;;10372123;28;20030;-83
2021/09/15 09:09:52;;;;;;;10.68;5.78;;;;;;;;;;10375598;28;20475;-82
2021/09/15 09:15:10;;;;;;;8.80;5.25;;;;;;;;;;10370067;28;20076;-84
2021/09/15 09:20:27;;;;;;;9.10;5.63;;;;;;;;;;10377456;28;20080;-81
2021/09/15 09:25:32;;;;;;;6.10;5.27;;;;;;;;;;10375085;28;20056;-78
2021/09/15 09:30:34;;;;;;;12.65;6.10;;;;;;;;;;10377835;28;20030;-79
2021/09/15 09:35:44;;;;;;;14.77;6.43;;;;;;;;;;10377422;28;20029;-79
2021/09/15 09:41:04;;;;;;;12.27;7.75;;;;;;;;;;10357336;28;20033;-78
2021/09/15 09:46:07;;;;;;;23.17;7.47;;;;;;;;;;10328591;28;20039;-78
2021/09/15 09:51:24;;;;;;;12.50;7.57;;;;;;;;;;10333642;28;20026;-79
2021/09/15 09:56:24;;;;;;;15.68;7.88;;;;;;;;;;10336316;28;20393;-79
2021/09/15 10:01:25;;;;;;;17.17;7.23;;;;;;;;;;10335936;28;20030;-80
2021/09/15 10:06:28;;;;;;;19.08;7.95;;;;;;;;;;10334792;28;20440;-79
2021/09/15 10:11:32;;;;;;;15.52;7.78;;;;;;;;;;10317902;28;20386;-81
2021/09/15 10:16:48;;;;;;;18.10;7.88;;;;;;;;;;10331123;28;20035;-78
2021/09/15 10:21:59;;;;;;;13.90;7.68;;;;;;;;;;10319022;28;20089;-78
2021/09/15 10:27:00;;;;;;;15.07;7.90;;;;;;;;;;10317009;28;20038;-79
2021/09/15 10:32:11;;;;;;;15.63;8.60;;;;;;;;;;10320737;28;20034;-79
2021/09/15 10:37:12;;;;;;;31.67;8.40;;;;;;;;;;10321187;28;20022;-81
2021/09/15 10:42:46;;;;;;;13.48;7.50;;;;;;;;;;10329669;28;20053;-80
2021/09/15 10:48:03;;;;;;;17.42;8.18;;;;;;;;;;10342026;28;20040;-80
2021/09/15 10:53:03;;;;;;;10.85;6.95;;;;;;;;;;10368836;28;20067;-81
2021/09/15 10:58:10;;;;;;;12.07;7.17;;;;;;;;;;10351416;28;20363;-80
2021/09/15 11:03:25;;;;;;;16.13;7.47;;;;;;;;;;10371976;28;20049;-82
2021/09/15 11:08:33;;;;;;;10.75;6.63;;;;;;;;;;10371874;28;20036;-81
2021/09/15 11:13:34;;;;;;;13.63;6.70;;;;;;;;;;10359474;28;20076;-80
2021/09/15 11:18:34;;;;;;;8.50;6.47;;;;;;;;;;10367906;28;20057;-80
2021/09/15 11:23:35;;;;;;;11.60;7.07;;;;;;;;;;10363672;28;20435;-81
2021/09/15 11:28:35;;;;;;;12.77;6.50;;;;;;;;;;10362228;28;20034;-84
2021/09/15 11:33:38;;;;;;;9.70;6.30;;;;;;;;;;10377304;28;20058;-85
2021/09/15 11:38:41;;;;;;;14.05;6.22;;;;;;;;;;10363915;28;20026;-84
2021/09/15 11:43:46;;;;;;;9.55;7.03;;;;;;;;;;10373664;28;20057;-85
2021/09/15 11:48:47;;;;;;;12.27;6.25;;;;;;;;;;10361367;28;20382;-84
2021/09/15 11:59:02;;;;;;;9.50;6.05;;;;;;;;;;10380414;28;20042;-86
2021/09/15 12:04:04;;;;;;;9.38;5.68;;;;;;;;;;10382912;28;20033;-85
2021/09/15 12:09:06;;;;;;;11.60;6.03;;;;;;;;;;10378819;28;20164;-81
2021/09/15 12:14:09;;;;;;;7.40;5.30;;;;;;;;;;10367689;28;20057;-88
2021/09/15 12:19:20;;;;;;;7.78;5.18;;;;;;;;;;10363172;28;20375;-86
2021/09/15 12:24:22;;;;;;;8.27;5.60;;;;;;;;;;10358881;28;20038;-80
2021/09/15 12:29:22;;;;;;;8.88;5.75;;;;;;;;;;10377497;28;20112;-79
2021/09/15 12:34:34;;;;;;;7.07;5.37;;;;;;;;;;10361640;28;20152;-80
2021/09/15 12:39:45;;;;;;;6.10;5.20;;;;;;;;;;10375103;28;20500;-81
2021/09/15 12:44:47;;;;;;;7.88;5.38;;;;;;;;;;10372745;28;20041;-81
2021/09/15 12:49:49;;;;;;;13.07;5.75;;;;;;;;;;10359344;28;20034;-81
2021/09/15 12:54:54;;;;;;;6.32;5.32;;;;;;;;;;10376320;28;20032;-78
2021/09/15 13:00:19;;;;;;;7.47;5.10;;;;;;;;;;10365704;28;20045;-79
2021/09/15 13:05:19;;;;;;;6.97;5.45;;;;;;;;;;10359480;28;20413;-78
2021/09/15 13:10:20;;;;;;;9.18;5.07;;;;;;;;;;10375123;28;20030;-77
2021/09/15 13:15:20;;;;;;;9.05;5.18;;;;;;;;;;10377750;28;20036;-78
2021/09/15 13:20:20;;;;;;;16.27;5.75;;;;;;;;;;10377651;28;20084;-78
2021/09/15 13:25:21;;;;;;;14.57;5.73;;;;;;;;;;10377312;28;20077;-78
2021/09/15 13:30:22;;;;;;;9.30;5.63;;;;;;;;;;10352773;28;20038;-88
2021/09/15 13:35:23;;;;;;;10.77;5.20;;;;;;;;;;10385568;28;20108;-85
2021/09/15 13:40:23;;;;;;;12.13;5.45;;;;;;;;;;10368757;28;20773;-86
2021/09/15 13:45:23;;;;;;;8.40;5.75;;;;;;;;;;10375583;28;20488;-85
2021/09/15 13:50:24;;;;;;;7.13;5.35;;;;;;;;;;10373190;28;20037;-86
2021/09/15 13:55:25;;;;;;;9.35;5.43;;;;;;;;;;10374673;28;20018;-88
2021/09/15 14:00:25;;;;;;;8.33;6.13;;;;;;;;;;10367237;28;20029;-88
2021/09/15 14:05:26;;;;;;;15.87;6.00;;;;;;;;;;10383329;28;20017;-87
2021/09/15 14:10:27;;;;;;;8.10;5.88;;;;;;;;;;10370660;28;20101;-88
2021/09/15 14:15:28;;;;;;;10.85;5.40;;;;;;;;;;10356503;28;20044;-87
2021/09/15 14:20:28;;;;;;;10.15;5.95;;;;;;;;;;10353177;28;20037;-92
2021/09/15 14:25:29;;;;;;;5.83;4.83;;;;;;;;;;10341644;28;20057;-92
2021/09/15 14:30:29;;;;;;;10.33;5.57;;;;;;;;;;10349367;28;20029;-86
2021/09/15 14:35:30;;;;;;;7.53;5.20;;;;;;;;;;10365490;28;20045;-87
2021/09/15 14:40:31;;;;;;;9.52;5.22;;;;;;;;;;10374395;28;20117;-88
2021/09/15 14:45:31;;;;;;;8.43;5.60;;;;;;;;;;10376848;28;20069;-90
2021/09/15 14:50:34;;;;;;;8.70;4.78;;;;;;;;;;10380105;28;20046;-88
2021/09/15 14:55:34;;;;;;;8.75;5.35;;;;;;;;;;10361549;28;20049;-86
2021/09/15 15:00:34;;;;;;;7.03;5.33;;;;;;;;;;10351344;28;20121;-90
2021/09/15 15:05:35;;;;;;;7.50;4.80;;;;;;;;;;10378528;28;20815;-89
2021/09/15 15:10:35;;;;;;;9.97;5.30;;;;;;;;;;10382581;28;20033;-91
2021/09/15 15:15:36;;;;;;;9.25;5.03;;;;;;;;;;10343539;28;20034;-89
2021/09/15 15:20:36;;;;;;;9.20;5.00;;;;;;;;;;10367300;28;20041;-89
2021/09/15 15:25:38;;;;;;;6.90;5.03;;;;;;;;;;10378289;28;20034;-88
2021/09/15 15:30:38;;;;;;;6.22;4.57;;;;;;;;;;10380884;28;20041;-89
2021/09/15 15:35:42;;;;;;;6.80;4.88;;;;;;;;;;10368147;28;20030;-88
2021/09/15 15:40:43;;;;;;;5.40;4.43;;;;;;;;;;10374504;28;20034;-88
2021/09/15 15:45:46;;;;;;;7.20;4.80;;;;;;;;;;10374549;28;20061;-87
2021/09/15 15:50:46;;;;;;;6.38;4.93;;;;;;;;;;10360034;28;20085;-90
2021/09/15 15:55:48;;;;;;;10.03;5.00;;;;;;;;;;10344571;28;20488;-88
2021/09/15 16:00:48;;;;;;;8.23;4.80;;;;;;;;;;10369182;28;20034;-88
2021/09/15 16:05:50;;;;;;;7.90;4.72;;;;;;;;;;10358354;28;20050;-88
2021/09/15 16:10:51;;;;;;;8.15;4.80;;;;;;;;;;10343270;28;20033;-88
2021/09/15 16:15:51;;;;;;;7.47;4.85;;;;;;;;;;10369284;28;20508;-87
2021/09/15 16:20:52;;;;;;;7.05;4.90;;;;;;;;;;10359132;28;20050;-88
2021/09/15 16:25:53;;;;;;;7.97;5.15;;;;;;;;;;10337889;28;20037;-90
2021/09/15 16:30:53;;;;;;;7.32;4.53;;;;;;;;;;10371415;28;20057;-89
2021/09/15 16:35:54;;;;;;;6.35;4.20;;;;;;;;;;10358622;28;20089;-89
2021/09/15 16:40:55;;;;;;;9.85;4.43;;;;;;;;;;10376767;28;20034;-87
2021/09/15 16:45:55;;;;;;;6.35;4.85;;;;;;;;;;10387341;28;20041;-87
2021/09/15 16:50:56;;;;;;;9.50;4.57;;;;;;;;;;10387225;28;20027;-91
2021/09/15 16:55:56;;;;;;;12.07;5.80;;;;;;;;;;10333519;28;20490;-84
2021/09/15 17:00:57;;;;;;;13.65;6.60;;;;;;;;;;10358257;28;20030;-87
2021/09/15 17:05:58;;;;;;;19.42;8.05;;;;;;;;;;10363959;28;20029;-86
2021/09/15 17:10:58;;;;;;;16.92;7.43;;;;;;;;;;10363440;28;20018;-90
2021/09/15 17:15:59;;;;;;;15.97;7.30;;;;;;;;;;10367623;28;20059;-91
2021/09/15 17:21:00;;;;;;;10.13;6.88;;;;;;;;;;10338696;28;20042;-90
2021/09/15 17:26:00;;;;;;;10.52;6.75;;;;;;;;;;10347747;28;20022;-91
2021/09/15 17:31:01;;;;;;;10.85;7.28;;;;;;;;;;10351934;28;20034;-92
2021/09/15 17:36:02;;;;;;;11.93;6.90;;;;;;;;;;10340670;28;20128;-92
2021/09/15 17:41:03;;;;;;;11.45;7.00;;;;;;;;;;10373235;28;20080;-93
2021/09/15 17:46:04;;;;;;;9.10;5.95;;;;;;;;;;10373954;28;20116;-91
2021/09/15 17:51:05;;;;;;;8.27;6.22;;;;;;;;;;10363503;28;20053;-93
2021/09/15 17:56:05;;;;;;;9.97;6.60;;;;;;;;;;10356460;28;20034;-91
2021/09/15 18:01:06;;;;;;;8.95;6.45;;;;;;;;;;10395052;28;20999;-93
2021/09/15 18:06:06;;;;;;;9.47;6.43;;;;;;;;;;10362764;28;20033;-93
2021/09/15 18:11:07;;;;;;;10.80;6.25;;;;;;;;;;10349900;28;20033;-93
2021/09/15 18:16:08;;;;;;;14.70;6.20;;;;;;;;;;10328144;28;20076;-83
2021/09/15 18:21:08;;;;;;;8.65;6.38;;;;;;;;;;10374860;28;20040;-82
2021/09/15 18:26:09;;;;;;;11.27;6.07;;;;;;;;;;10374293;28;20532;-84
2021/09/15 18:31:09;;;;;;;10.77;7.40;;;;;;;;;;10376570;28;20464;-82
2021/09/15 18:36:10;;;;;;;10.75;6.55;;;;;;;;;;10359118;28;20407;-83
2021/09/15 18:41:10;;;;;;;9.60;6.03;;;;;;;;;;10337208;28;20120;-83
2021/09/15 18:46:10;;;;;;;10.43;5.87;;;;;;;;;;10367302;28;20030;-83
2021/09/15 18:51:11;;;;;;;10.23;6.37;;;;;;;;;;10378252;28;20124;-81
2021/09/15 18:56:11;;;;;;;15.43;6.23;;;;;;;;;;10374708;28;20042;-84
2021/09/15 19:01:12;;;;;;;9.90;6.28;;;;;;;;;;10362646;28;20038;-85
2021/09/15 19:06:16;;;;;;;9.52;5.72;;;;;;;;;;10361415;28;20026;-83
2021/09/15 19:11:21;;;;;;;10.57;6.10;;;;;;;;;;10371207;28;20022;-84
2021/09/15 19:16:23;;;;;;;12.55;5.78;;;;;;;;;;10365156;28;20027;-83
2021/09/15 19:21:24;;;;;;;10.55;6.55;;;;;;;;;;10363614;28;20034;-85
2021/09/15 19:26:27;;;;;;;14.05;7.25;;;;;;;;;;10364760;28;20022;-84
2021/09/15 19:31:29;;;;;;;10.23;6.80;;;;;;;;;;10353752;28;20165;-85
2021/09/15 19:36:33;;;;;;;11.40;6.80;;;;;;;;;;10353471;28;20026;-84
2021/09/15 19:41:35;;;;;;;12.23;6.95;;;;;;;;;;10412745;23;20053;-85
2021/09/15 19:46:40;;;;;;;13.07;7.63;;;;;;;;;;10335700;28;20034;-84
2021/09/15 19:51:41;;;;;;;13.27;7.20;;;;;;;;;;10370351;28;20058;-85
2021/09/15 19:56:44;;;;;;;11.60;7.18;;;;;;;;;;10354776;28;20116;-84
2021/09/15 20:01:45;;;;;;;10.55;7.07;;;;;;;;;;10360822;28;20040;-85
2021/09/15 20:06:47;;;;;;;12.38;8.13;;;;;;;;;;10355750;28;20026;-86
2021/09/15 20:11:48;;;;;;;14.85;8.95;;;;;;;;;;10352429;28;20030;-86
2021/09/15 20:16:53;;;;;;;13.13;8.85;;;;;;;;;;10380697;28;20030;-85
2021/09/15 20:21:54;;;;;;;16.48;9.10;;;;;;;;;;10317627;28;20389;-84
2021/09/15 20:26:56;;;;;;;19.38;10.13;;;;;;;;;;10353461;28;20104;-87
2021/09/15 20:31:57;;;;;;;19.20;10.05;;;;;;;;;;10344451;28;20026;-84
2021/09/15 20:36:59;;;;;;;19.75;11.05;;;;;;;;;;10343851;28;20489;-86
2021/09/15 20:42:01;;;;;;;21.02;10.85;;;;;;;;;;10363897;28;20050;-85
2021/09/15 20:47:03;;;;;;;18.55;10.80;;;;;;;;;;10361643;28;20045;-85
2021/09/15 20:52:05;;;;;;;19.20;11.00;;;;;;;;;;10375008;28;20360;-86
2021/09/15 20:57:07;;;;;;;18.48;11.52;;;;;;;;;;10359647;28;20021;-89
2021/09/15 21:02:07;;;;;;;17.30;11.65;;;;;;;;;;10359040;28;20037;-86
2021/09/15 21:07:07;;;;;;;18.20;11.47;;;;;;;;;;10374404;28;20037;-86
2021/09/15 21:12:08;;;;;;;29.57;20.67;;;;;;;;;;10341912;28;20028;-86
2021/09/15 21:17:09;;;;;;;46.00;28.38;;;;;;;;;;10377668;28;20061;-86
2021/09/15 21:22:09;;;;;;;42.20;31.03;;;;;;;;;;10376743;28;20120;-84
2021/09/15 21:27:10;;;;;;;48.67;33.70;;;;;;;;;;10376058;28;20030;-90
2021/09/15 21:32:10;;;;;;;46.53;33.87;;;;;;;;;;10344746;28;20065;-90
2021/09/15 21:37:10;;;;;;;52.33;36.17;;;;;;;;;;10346216;28;20087;-89
2021/09/15 21:42:11;;;;;;;60.47;38.60;;;;;;;;;;10357287;28;20471;-86
2021/09/15 21:47:11;;;;;;;50.42;37.40;;;;;;;;;;10340292;28;21013;-89
2021/09/15 21:52:12;;;;;;;53.50;39.10;;;;;;;;;;10376534;28;20026;-86
2021/09/15 21:57:12;;;;;;;59.87;37.53;;;;;;;;;;10363630;28;20072;-87
2021/09/15 22:02:12;;;;;;;55.67;40.90;;;;;;;;;;10349117;28;20026;-85
2021/09/15 22:07:13;;;;;;;55.30;41.73;;;;;;;;;;10362612;28;20034;-86
2021/09/15 22:12:13;;;;;;;48.90;37.30;;;;;;;;;;10341652;28;20426;-87
2021/09/15 22:17:13;;;;;;;43.60;31.17;;;;;;;;;;10318303;28;20084;-84
2021/09/15 22:22:14;;;;;;;43.77;29.43;;;;;;;;;;10363476;28;20037;-84
2021/09/15 22:27:14;;;;;;;38.00;28.47;;;;;;;;;;10366968;28;20438;-85
2021/09/15 22:32:16;;;;;;;41.80;25.10;;;;;;;;;;10348590;28;20108;-83
2021/09/15 22:37:16;;;;;;;42.50;24.65;;;;;;;;;;10372769;28;20021;-84
2021/09/15 22:42:16;;;;;;;33.93;21.87;;;;;;;;;;10371558;28;20053;-84
2021/09/15 22:47:17;;;;;;;35.33;21.27;;;;;;;;;;10367999;28;20444;-88
2021/09/15 22:52:17;;;;;;;29.52;20.35;;;;;;;;;;10354386;28;20177;-88
2021/09/15 22:57:18;;;;;;;26.83;18.77;;;;;;;;;;10336913;28;20109;-88
2021/09/15 23:02:18;;;;;;;30.27;16.90;;;;;;;;;;10344441;28;20511;-88
2021/09/15 23:07:18;;;;;;;20.83;16.07;;;;;;;;;;10355134;28;20030;-85
2021/09/15 23:12:19;;;;;;;28.33;14.60;;;;;;;;;;10371090;28;20018;-86
2021/09/15 23:17:19;;;;;;;23.20;14.17;;;;;;;;;;10347416;28;20505;-86
2021/09/15 23:22:20;;;;;;;19.53;14.33;;;;;;;;;;10364774;28;20109;-86
2021/09/15 23:27:20;;;;;;;17.23;13.33;;;;;;;;;;10368838;28;20029;-87
2021/09/15 23:32:21;;;;;;;23.73;13.15;;;;;;;;;;10330694;28;20101;-88
2021/09/15 23:37:21;;;;;;;16.30;12.80;;;;;;;;;;10352768;28;20022;-88
2021/09/15 23:42:21;;;;;;;17.20;12.30;;;;;;;;;;10349943;28;20455;-88
2021/09/15 23:47:22;;;;;;;16.80;11.73;;;;;;;;;;10366514;28;20022;-88
2021/09/15 23:52:22;;;;;;;13.30;10.37;;;;;;;;;;10331023;28;20452;-88
2021/09/15 23:57:22;;;;;;;11.77;9.90;;;;;;;;;;10356771;28;20450;-88
